createdAt,value
2018-06-30T00:01:29.875Z,15.90
2018-06-30T00:03:58.171Z,15.80
2018-06-30T00:06:27.418Z,15.60
2018-06-30T00:08:56.383Z,15.50
2018-06-30T00:11:25.055Z,15.50
2018-06-30T00:13:53.842Z,15.60
2018-06-30T00:16:22.199Z,15.70
2018-06-30T00:18:50.549Z,15.80
2018-06-30T00:21:18.856Z,15.90
2018-06-30T00:23:47.181Z,16.00
2018-06-30T00:26:15.541Z,16.00
2018-06-30T00:28:43.910Z,16.10
2018-06-30T00:31:12.219Z,16.10
2018-06-30T00:36:08.596Z,16.10
2018-06-30T00:38:36.924Z,16.10
2018-06-30T00:41:05.257Z,16.20
2018-06-30T00:43:33.634Z,16.20
2018-06-30T00:46:01.950Z,16.10
2018-06-30T00:48:30.253Z,16.10
2018-06-30T00:50:58.591Z,16.00
2018-06-30T00:53:26.907Z,16.10
2018-06-30T00:58:23.306Z,16.00
2018-06-30T01:00:51.618Z,15.90
2018-06-30T01:03:19.937Z,15.90
2018-06-30T01:05:48.266Z,15.80
2018-06-30T01:08:16.599Z,15.80
2018-06-30T01:10:44.993Z,15.70
2018-06-30T01:13:13.314Z,15.70
2018-06-30T01:15:41.629Z,15.60
2018-06-30T01:18:09.959Z,15.60
2018-06-30T01:20:38.267Z,15.50
2018-06-30T01:23:06.600Z,15.50
2018-06-30T01:25:34.905Z,15.50
2018-06-30T01:28:03.253Z,15.50
2018-06-30T01:30:31.565Z,15.50
2018-06-30T01:32:59.993Z,15.50
2018-06-30T01:35:28.332Z,15.50
2018-06-30T01:37:56.663Z,15.50
2018-06-30T01:40:24.961Z,15.50
2018-06-30T01:42:53.291Z,15.40
2018-06-30T01:45:21.617Z,15.30
2018-06-30T01:47:49.954Z,15.30
2018-06-30T01:50:18.278Z,15.30
2018-06-30T01:52:46.679Z,15.20
2018-06-30T01:55:15.006Z,15.10
2018-06-30T01:57:43.399Z,15.10
2018-06-30T02:00:11.721Z,15.00
2018-06-30T02:02:40.043Z,15.00
2018-06-30T02:05:08.388Z,15.00
2018-06-30T02:07:36.773Z,15.00
2018-06-30T02:12:33.210Z,14.90
2018-06-30T02:15:01.531Z,14.90
2018-06-30T02:17:29.867Z,14.80
2018-06-30T02:19:58.191Z,14.80
2018-06-30T02:22:26.502Z,14.80
2018-06-30T02:24:54.847Z,14.80
2018-06-30T02:27:23.244Z,14.70
2018-06-30T02:29:51.568Z,14.70
2018-06-30T02:32:19.864Z,14.60
2018-06-30T02:34:48.287Z,14.50
2018-06-30T02:37:16.602Z,14.50
2018-06-30T02:39:45.100Z,14.50
2018-06-30T02:42:13.423Z,14.50
2018-06-30T02:44:41.744Z,14.50
2018-06-30T02:47:10.039Z,14.50
2018-06-30T02:49:38.369Z,14.40
2018-06-30T02:52:06.716Z,14.40
2018-06-30T02:54:35.043Z,14.40
2018-06-30T02:57:03.361Z,14.40
2018-06-30T02:59:31.677Z,14.40
2018-06-30T03:01:59.963Z,14.40
2018-06-30T03:09:24.473Z,14.40
2018-06-30T03:11:52.792Z,14.40
2018-06-30T03:14:21.117Z,14.40
2018-06-30T03:16:49.434Z,14.40
2018-06-30T03:19:17.765Z,14.40
2018-06-30T03:21:46.076Z,14.40
2018-06-30T03:24:14.422Z,14.50
2018-06-30T03:26:42.737Z,14.50
2018-06-30T03:29:11.049Z,14.60
2018-06-30T03:31:39.449Z,14.60
2018-06-30T03:34:07.690Z,14.60
2018-06-30T03:36:35.992Z,14.60
2018-06-30T03:39:05.748Z,14.60
2018-06-30T03:41:34.063Z,14.60
2018-06-30T03:44:02.380Z,14.60
2018-06-30T03:46:30.679Z,14.60
2018-06-30T03:48:59.131Z,14.60
2018-06-30T03:51:27.453Z,14.60
2018-06-30T03:53:56.193Z,14.60
2018-06-30T03:56:24.630Z,14.70
2018-06-30T03:58:53.494Z,14.80
2018-06-30T04:01:21.814Z,14.70
2018-06-30T04:03:50.153Z,14.70
2018-06-30T04:06:18.463Z,14.70
2018-06-30T04:08:46.881Z,14.70
2018-06-30T04:11:15.214Z,14.60
2018-06-30T04:13:43.580Z,14.70
2018-06-30T04:16:11.891Z,14.60
2018-06-30T04:18:40.214Z,14.70
2018-06-30T04:21:08.576Z,14.60
2018-06-30T04:23:36.893Z,14.60
2018-06-30T04:26:05.199Z,14.60
2018-06-30T04:28:33.529Z,14.50
2018-06-30T04:31:01.852Z,14.50
2018-06-30T04:33:30.197Z,14.60
2018-06-30T04:35:58.519Z,14.60
2018-06-30T04:38:26.835Z,14.60
2018-06-30T04:40:55.175Z,14.60
2018-06-30T04:43:23.466Z,14.60
2018-06-30T04:45:51.797Z,14.60
2018-06-30T04:48:20.166Z,14.50
2018-06-30T04:50:48.500Z,14.50
2018-06-30T04:53:16.852Z,14.50
2018-06-30T04:55:45.188Z,14.50
2018-06-30T04:58:13.512Z,14.50
2018-06-30T05:00:41.831Z,14.50
2018-06-30T05:03:10.128Z,14.60
2018-06-30T05:05:38.456Z,14.60
2018-06-30T05:08:06.796Z,14.60
2018-06-30T05:10:35.132Z,14.70
2018-06-30T05:13:03.449Z,14.80
2018-06-30T05:15:31.810Z,15.00
2018-06-30T05:18:00.121Z,15.00
2018-06-30T05:20:28.447Z,15.00
2018-06-30T05:22:56.741Z,15.10
2018-06-30T05:25:25.074Z,15.00
2018-06-30T05:27:53.390Z,14.90
2018-06-30T05:30:21.734Z,15.00
2018-06-30T05:32:50.287Z,15.10
2018-06-30T05:35:18.666Z,15.10
2018-06-30T05:37:46.989Z,15.00
2018-06-30T05:40:15.329Z,15.20
2018-06-30T05:42:43.719Z,15.20
2018-06-30T05:45:12.037Z,15.50
2018-06-30T05:47:40.357Z,15.80
2018-06-30T05:50:08.697Z,15.60
2018-06-30T05:52:37.033Z,15.10
2018-06-30T05:55:05.400Z,15.10
2018-06-30T05:57:33.729Z,15.20
2018-06-30T06:00:02.145Z,15.20
2018-06-30T06:02:30.449Z,15.30
2018-06-30T06:04:58.834Z,15.40
2018-06-30T06:07:27.163Z,15.50
2018-06-30T06:09:55.510Z,15.30
2018-06-30T06:12:23.878Z,15.10
2018-06-30T06:14:52.508Z,15.20
2018-06-30T06:18:50.318Z,15.30
2018-06-30T06:21:18.658Z,15.40
2018-06-30T06:23:46.977Z,15.60
2018-06-30T06:26:15.293Z,15.90
2018-06-30T06:28:43.619Z,15.90
2018-06-30T06:31:11.945Z,15.90
2018-06-30T06:33:40.273Z,15.70
2018-06-30T06:36:08.628Z,15.80
2018-06-30T06:38:36.963Z,15.90
2018-06-30T06:41:05.407Z,15.90
2018-06-30T06:43:33.752Z,16.20
2018-06-30T06:46:02.109Z,16.60
2018-06-30T06:48:30.411Z,16.70
2018-06-30T06:50:58.758Z,16.40
2018-06-30T06:53:27.075Z,16.50
2018-06-30T06:55:55.416Z,16.20
2018-06-30T06:58:23.723Z,15.70
2018-06-30T07:00:52.041Z,15.70
2018-06-30T07:03:20.356Z,16.10
2018-06-30T07:05:55.295Z,16.40
2018-06-30T07:08:23.639Z,16.50
2018-06-30T07:10:52.012Z,16.40
2018-06-30T07:13:20.372Z,16.70
2018-06-30T07:15:48.713Z,16.90
2018-06-30T07:18:17.034Z,17.30
2018-06-30T07:20:45.474Z,16.50
2018-06-30T07:23:13.810Z,16.80
2018-06-30T07:25:42.131Z,16.60
2018-06-30T07:28:10.497Z,17.00
2018-06-30T07:30:38.861Z,17.60
2018-06-30T07:33:07.506Z,18.50
2018-06-30T07:35:35.805Z,20.70
2018-06-30T07:38:04.242Z,22.50
2018-06-30T07:40:32.553Z,23.50
2018-06-30T07:43:00.906Z,22.50
2018-06-30T07:45:29.222Z,21.20
2018-06-30T07:47:57.573Z,19.40
2018-06-30T07:50:26.015Z,20.40
2018-06-30T07:52:54.311Z,22.10
2018-06-30T07:55:22.637Z,23.80
2018-06-30T07:57:50.980Z,24.70
2018-06-30T08:00:19.337Z,24.80
2018-06-30T08:02:47.683Z,25.40
2018-06-30T08:05:16.006Z,25.30
2018-06-30T08:07:44.353Z,24.60
2018-06-30T08:10:12.694Z,25.20
2018-06-30T08:12:41.050Z,25.60
2018-06-30T08:15:09.462Z,25.00
2018-06-30T08:17:37.802Z,25.80
2018-06-30T08:20:06.169Z,24.80
2018-06-30T08:22:34.516Z,24.50
2018-06-30T08:25:02.850Z,25.20
2018-06-30T08:27:31.213Z,25.60
2018-06-30T08:29:59.539Z,25.30
2018-06-30T08:32:27.899Z,26.00
2018-06-30T08:34:56.229Z,27.00
2018-06-30T08:37:24.605Z,26.50
2018-06-30T08:39:52.941Z,25.10
2018-06-30T08:42:21.296Z,25.00
2018-06-30T08:44:49.610Z,25.60
2018-06-30T08:47:17.957Z,25.00
2018-06-30T08:49:46.262Z,26.30
2018-06-30T08:52:14.595Z,27.00
2018-06-30T08:54:42.921Z,27.40
2018-06-30T08:57:11.251Z,27.70
2018-06-30T08:59:39.741Z,26.90
2018-06-30T09:02:08.107Z,25.70
2018-06-30T09:04:36.419Z,25.30
2018-06-30T09:07:04.790Z,25.40
2018-06-30T09:09:33.125Z,24.90
2018-06-30T09:12:01.742Z,24.20
2018-06-30T09:14:30.064Z,24.50
2018-06-30T09:16:58.426Z,24.80
2018-06-30T09:19:26.786Z,25.00
2018-06-30T09:21:55.444Z,25.30
2018-06-30T09:31:10.533Z,24.10
2018-06-30T09:33:38.882Z,20.60
2018-06-30T09:36:07.682Z,19.60
2018-06-30T09:38:36.047Z,19.10
2018-06-30T09:41:04.361Z,19.20
2018-06-30T09:43:32.712Z,18.90
2018-06-30T09:46:01.048Z,18.80
2018-06-30T09:48:29.561Z,18.90
2018-06-30T09:50:58.016Z,18.70
2018-06-30T09:53:26.428Z,18.50
2018-06-30T09:55:54.763Z,18.30
2018-06-30T09:58:23.107Z,18.30
2018-06-30T10:00:56.929Z,18.30
2018-06-30T10:03:25.475Z,18.20
2018-06-30T10:05:53.805Z,18.10
2018-06-30T10:08:22.243Z,18.10
2018-06-30T10:10:50.573Z,18.20
2018-06-30T10:13:18.974Z,18.20
2018-06-30T10:15:47.341Z,18.40
2018-06-30T10:18:15.663Z,18.40
2018-06-30T10:20:44.092Z,18.60
2018-06-30T10:23:12.508Z,18.50
2018-06-30T10:25:40.839Z,18.60
2018-06-30T10:28:09.498Z,18.60
2018-06-30T10:30:38.862Z,18.60
2018-06-30T10:33:07.221Z,18.70
2018-06-30T10:35:35.553Z,18.60
2018-06-30T10:38:03.939Z,18.50
2018-06-30T10:40:32.264Z,18.50
2018-06-30T10:43:00.615Z,18.70
2018-06-30T10:45:28.980Z,18.50
2018-06-30T10:47:57.338Z,18.30
2018-06-30T10:50:25.652Z,18.40
2018-06-30T10:52:54.007Z,18.40
2018-06-30T10:55:22.341Z,18.60
2018-06-30T10:57:50.671Z,18.70
2018-06-30T11:00:19.069Z,18.90
2018-06-30T11:02:47.500Z,18.80
2018-06-30T11:05:15.977Z,18.80
2018-06-30T11:07:44.273Z,18.70
2018-06-30T11:10:12.613Z,18.70
2018-06-30T11:12:40.944Z,18.90
2018-06-30T11:15:09.300Z,18.80
2018-06-30T11:17:37.802Z,18.70
2018-06-30T11:20:06.329Z,18.80
2018-06-30T11:22:34.655Z,18.80
2018-06-30T11:25:03.116Z,18.70
2018-06-30T11:27:31.439Z,18.70
2018-06-30T11:29:59.835Z,18.70
2018-06-30T11:32:28.188Z,18.80
2018-06-30T11:34:56.581Z,18.80
2018-06-30T11:37:24.911Z,18.90
2018-06-30T11:39:53.246Z,19.00
2018-06-30T11:44:49.833Z,19.10
2018-06-30T11:47:18.187Z,19.00
2018-06-30T11:49:46.510Z,19.00
2018-06-30T11:52:14.882Z,19.00
2018-06-30T11:54:43.212Z,18.90
2018-06-30T11:57:11.612Z,18.90
2018-06-30T11:59:39.976Z,18.90
2018-06-30T12:02:08.551Z,19.00
2018-06-30T12:04:36.934Z,18.90
2018-06-30T12:07:06.959Z,18.80
2018-06-30T12:09:35.464Z,18.90
2018-06-30T12:12:03.856Z,19.10
2018-06-30T12:14:32.185Z,19.00
2018-06-30T12:17:00.538Z,19.20
2018-06-30T12:19:28.866Z,19.30
2018-06-30T12:21:57.200Z,19.20
2018-06-30T12:24:25.578Z,19.20
2018-06-30T12:26:53.911Z,19.30
2018-06-30T12:29:22.261Z,19.20
2018-06-30T12:31:50.637Z,19.20
2018-06-30T12:34:18.977Z,19.10
2018-06-30T12:36:47.356Z,19.00
2018-06-30T12:39:15.708Z,18.90
2018-06-30T12:41:44.078Z,18.90
2018-06-30T12:44:12.552Z,19.10
2018-06-30T12:46:40.873Z,19.20
2018-06-30T12:49:09.255Z,19.30
2018-06-30T12:51:37.638Z,19.20
2018-06-30T12:54:06.123Z,19.10
2018-06-30T12:56:34.493Z,19.20
2018-06-30T12:59:02.884Z,19.20
2018-06-30T13:01:31.255Z,19.20
2018-06-30T13:03:59.621Z,19.30
2018-06-30T13:06:28.013Z,19.20
2018-06-30T13:08:56.334Z,19.10
2018-06-30T13:11:24.715Z,19.20
2018-06-30T13:13:53.595Z,19.30
2018-06-30T13:16:21.981Z,19.30
2018-06-30T13:18:50.311Z,19.30
2018-06-30T13:21:18.798Z,19.40
2018-06-30T13:23:47.165Z,19.50
2018-06-30T13:26:15.511Z,19.40
2018-06-30T13:28:43.909Z,19.40
2018-06-30T13:31:12.266Z,19.40
2018-06-30T13:33:40.589Z,19.40
2018-06-30T13:36:08.984Z,19.50
2018-06-30T13:38:37.317Z,19.40
2018-06-30T13:41:05.907Z,19.50
2018-06-30T13:43:34.255Z,19.50
2018-06-30T13:46:02.646Z,19.40
2018-06-30T13:48:31.070Z,19.30
2018-06-30T13:50:59.447Z,19.30
2018-06-30T13:53:27.843Z,19.30
2018-06-30T13:55:56.239Z,19.40
2018-06-30T13:58:24.621Z,19.40
2018-06-30T14:00:53.035Z,19.30
2018-06-30T14:03:21.333Z,19.20
2018-06-30T14:05:49.675Z,19.30
2018-06-30T14:08:18.033Z,19.30
2018-06-30T14:10:46.781Z,19.20
2018-06-30T14:15:43.205Z,19.30
2018-06-30T14:18:11.585Z,19.40
2018-06-30T14:20:39.902Z,19.40
2018-06-30T14:23:08.281Z,19.30
2018-06-30T14:25:36.618Z,19.30
2018-06-30T14:28:05.218Z,19.30
2018-06-30T14:30:33.604Z,19.40
2018-06-30T14:33:01.946Z,19.50
2018-06-30T14:35:30.349Z,19.50
2018-06-30T14:37:58.739Z,19.50
2018-06-30T14:40:27.067Z,19.50
2018-06-30T14:42:55.506Z,19.50
2018-06-30T14:45:23.906Z,19.30
2018-06-30T14:47:52.251Z,19.30
2018-06-30T14:50:20.873Z,19.20
2018-06-30T14:52:49.544Z,19.20
2018-06-30T14:55:17.894Z,19.10
2018-06-30T14:57:46.414Z,19.20
2018-06-30T15:00:14.821Z,19.20
2018-06-30T15:02:43.258Z,19.20
2018-06-30T15:05:12.195Z,19.10
2018-06-30T15:07:40.595Z,19.20
2018-06-30T15:10:09.719Z,19.20
2018-06-30T15:12:38.536Z,19.20
2018-06-30T15:15:07.524Z,19.30
2018-06-30T15:17:35.893Z,19.30
2018-06-30T15:20:04.464Z,19.30
2018-06-30T15:22:32.767Z,19.30
2018-06-30T15:25:01.176Z,19.40
2018-06-30T15:27:29.475Z,19.20
2018-06-30T15:29:57.770Z,19.20
2018-06-30T15:32:26.085Z,19.10
2018-06-30T15:34:54.442Z,19.10
2018-06-30T15:37:22.789Z,19.10
2018-06-30T15:39:51.102Z,19.00
2018-06-30T15:42:19.428Z,19.00
2018-06-30T15:44:47.752Z,19.00
2018-06-30T15:47:16.095Z,18.90
2018-06-30T15:49:44.428Z,18.90
2018-06-30T15:52:12.773Z,19.00
2018-06-30T15:54:41.114Z,19.00
2018-06-30T15:57:09.427Z,19.00
2018-06-30T15:59:37.753Z,18.90
2018-06-30T16:02:06.105Z,19.00
2018-06-30T16:04:34.395Z,19.00
2018-06-30T16:07:02.704Z,19.00
2018-06-30T16:09:31.025Z,18.90
2018-06-30T16:11:59.358Z,19.00
2018-06-30T16:14:27.679Z,18.90
2018-06-30T16:16:56.015Z,18.90
2018-06-30T16:19:24.548Z,18.90
2018-06-30T16:21:52.872Z,18.90
2018-06-30T16:24:21.187Z,18.90
2018-06-30T16:26:49.529Z,19.00
2018-06-30T16:29:17.836Z,18.90
2018-06-30T16:31:46.182Z,18.90
2018-06-30T16:34:14.476Z,18.80
2018-06-30T16:36:42.815Z,18.70
2018-06-30T16:39:12.224Z,18.70
2018-06-30T16:41:40.837Z,18.70
2018-06-30T16:44:09.135Z,18.70
2018-06-30T16:46:38.141Z,18.80
2018-06-30T16:49:06.947Z,18.70
2018-06-30T16:51:35.222Z,18.70
2018-06-30T16:54:03.548Z,18.70
2018-06-30T16:56:31.866Z,18.60
2018-06-30T16:59:00.188Z,18.60
2018-06-30T17:01:28.517Z,18.50
2018-06-30T17:03:56.845Z,18.50
2018-06-30T17:06:25.183Z,18.50
2018-06-30T17:08:53.503Z,18.40
2018-06-30T17:11:21.810Z,18.40
2018-06-30T17:13:50.115Z,18.40
2018-06-30T17:16:18.444Z,18.40
2018-06-30T17:18:46.765Z,18.40
2018-06-30T17:21:15.084Z,18.40
2018-06-30T17:23:43.401Z,18.30
2018-06-30T17:26:11.779Z,18.30
2018-06-30T17:28:40.047Z,18.30
2018-06-30T17:31:08.374Z,18.30
2018-06-30T17:33:36.723Z,18.30
2018-06-30T17:36:05.123Z,18.20
2018-06-30T17:38:33.463Z,18.10
2018-06-30T17:41:01.770Z,18.10
2018-06-30T17:43:30.100Z,18.10
2018-06-30T17:45:58.428Z,18.10
2018-06-30T17:48:26.831Z,18.00
2018-06-30T17:50:55.124Z,18.00
2018-06-30T17:53:23.466Z,17.90
2018-06-30T17:55:51.800Z,17.90
2018-06-30T17:58:20.117Z,17.90
2018-06-30T18:00:48.411Z,17.80
2018-06-30T18:03:16.731Z,17.80
2018-06-30T18:05:45.032Z,17.80
2018-06-30T18:08:13.358Z,17.80
2018-06-30T18:10:41.705Z,17.70
2018-06-30T18:13:10.058Z,17.70
2018-06-30T18:15:38.359Z,17.60
2018-06-30T18:18:06.719Z,17.60
2018-06-30T18:20:35.034Z,17.50
2018-06-30T18:23:03.405Z,17.40
2018-06-30T18:25:31.976Z,17.40
2018-06-30T18:28:00.313Z,17.30
2018-06-30T18:30:28.636Z,17.30
2018-06-30T18:32:56.959Z,17.20
2018-06-30T18:35:25.294Z,17.20
2018-06-30T18:37:53.623Z,17.10
2018-06-30T18:40:21.941Z,17.00
2018-06-30T18:42:50.255Z,16.90
2018-06-30T18:45:18.561Z,16.80
2018-06-30T18:47:46.884Z,16.80
2018-06-30T18:50:15.175Z,16.70
2018-06-30T18:52:43.550Z,16.60
2018-06-30T18:55:11.854Z,16.60
2018-06-30T18:57:40.183Z,16.50
2018-06-30T19:00:09.173Z,16.40
2018-06-30T19:02:37.761Z,16.30
2018-06-30T19:05:06.546Z,16.20
2018-06-30T19:07:35.030Z,16.10
2018-06-30T19:10:03.425Z,16.00
2018-06-30T19:12:31.735Z,16.00
2018-06-30T19:15:00.066Z,16.00
2018-06-30T19:17:28.445Z,15.90
2018-06-30T19:19:56.781Z,15.80
2018-06-30T19:22:25.095Z,15.70
2018-06-30T19:24:53.496Z,15.60
2018-06-30T19:27:21.931Z,15.50
2018-06-30T19:29:50.224Z,15.50
2018-06-30T19:32:18.531Z,15.40
2018-06-30T19:34:46.827Z,15.20
2018-06-30T19:37:15.244Z,15.30
2018-06-30T19:39:43.560Z,15.20
2018-06-30T19:42:12.020Z,15.10
2018-06-30T19:47:08.634Z,15.00
2018-06-30T19:49:37.073Z,14.90
2018-06-30T19:52:06.925Z,14.80
2018-06-30T19:54:35.972Z,14.80
2018-06-30T19:59:34.084Z,14.70
2018-06-30T20:02:02.510Z,14.60
2018-06-30T20:04:31.473Z,14.60
2018-06-30T20:06:59.953Z,14.50
2018-06-30T20:09:28.374Z,14.50
2018-06-30T20:11:58.866Z,14.50
2018-06-30T20:14:27.495Z,14.40
2018-06-30T20:16:55.834Z,14.30
2018-06-30T20:19:24.221Z,14.30
2018-06-30T20:21:52.556Z,14.20
2018-06-30T20:26:48.968Z,14.10
2018-06-30T20:29:17.303Z,14.10
2018-06-30T20:31:45.671Z,14.10
2018-06-30T20:34:14.061Z,14.10
2018-06-30T20:36:42.385Z,14.00
2018-06-30T20:39:11.100Z,14.00
2018-06-30T20:41:39.524Z,13.90
2018-06-30T20:44:08.562Z,13.90
2018-06-30T20:46:36.968Z,13.80
2018-06-30T20:49:05.330Z,13.80
2018-06-30T20:51:33.673Z,13.80
2018-06-30T20:54:02.197Z,13.80
2018-06-30T20:56:30.538Z,13.80
2018-06-30T20:58:58.824Z,13.70
2018-06-30T21:01:27.215Z,13.70
2018-06-30T21:03:55.595Z,13.60
2018-06-30T21:06:23.942Z,13.50
2018-06-30T21:08:52.287Z,13.30
2018-06-30T21:11:20.629Z,13.10
2018-06-30T21:13:48.944Z,12.90
2018-06-30T21:16:17.336Z,12.70
2018-06-30T21:18:45.709Z,12.60
2018-06-30T21:21:14.123Z,12.50
2018-06-30T21:23:42.479Z,12.50
2018-06-30T21:26:10.825Z,12.40
2018-06-30T21:28:39.189Z,12.40
2018-06-30T21:31:07.526Z,12.20
2018-06-30T21:33:36.698Z,12.10
2018-06-30T21:36:05.090Z,11.90
2018-06-30T21:38:33.509Z,11.90
2018-06-30T21:41:01.965Z,11.80
2018-06-30T21:43:30.350Z,11.70
2018-06-30T21:45:58.818Z,11.50
2018-06-30T21:48:27.208Z,11.50
2018-06-30T21:50:55.586Z,11.40
2018-06-30T21:53:23.983Z,11.30
2018-06-30T21:55:52.341Z,11.30
2018-06-30T21:58:22.023Z,11.30
2018-06-30T22:00:55.789Z,11.20
2018-06-30T22:03:25.336Z,11.20
2018-06-30T22:05:54.978Z,11.10
2018-06-30T22:08:23.386Z,10.90
2018-06-30T22:10:51.877Z,10.70
2018-06-30T22:13:20.609Z,10.60
2018-06-30T22:15:49.387Z,10.50
2018-06-30T22:18:17.812Z,10.40
2018-06-30T22:20:46.126Z,10.30
2018-06-30T22:23:14.554Z,10.10
2018-06-30T22:25:42.943Z,10.00
2018-06-30T22:28:11.278Z,9.90
2018-06-30T22:30:39.678Z,9.90
2018-06-30T22:33:08.017Z,9.90
2018-06-30T22:35:36.374Z,10.00
2018-06-30T22:38:05.207Z,10.10
2018-06-30T22:40:33.593Z,10.10
2018-06-30T22:43:01.964Z,10.00
2018-06-30T22:45:30.351Z,10.00
2018-06-30T22:47:58.700Z,9.90
2018-06-30T22:50:27.060Z,9.70
2018-06-30T22:52:55.737Z,9.60
2018-06-30T22:55:24.150Z,9.50
2018-06-30T22:57:52.526Z,9.40
2018-06-30T23:00:20.940Z,9.40
2018-06-30T23:02:49.260Z,9.30
2018-06-30T23:05:17.686Z,9.30
2018-06-30T23:07:46.023Z,9.20
2018-06-30T23:10:14.875Z,9.20
2018-06-30T23:12:43.934Z,9.00
2018-06-30T23:15:12.439Z,9.00
2018-06-30T23:17:40.866Z,9.00
2018-06-30T23:20:09.554Z,8.90
2018-06-30T23:23:11.842Z,9.00
2018-06-30T23:28:09.238Z,9.00
2018-06-30T23:30:37.713Z,9.00
2018-06-30T23:33:06.083Z,8.90
2018-06-30T23:35:34.780Z,8.80
2018-06-30T23:38:03.845Z,8.60
2018-06-30T23:40:32.213Z,8.50
2018-06-30T23:43:00.574Z,8.40
2018-06-30T23:45:28.967Z,8.40
2018-06-30T23:47:57.284Z,8.40
2018-06-30T23:50:25.639Z,8.40
2018-06-30T23:52:53.976Z,8.50
2018-06-30T23:55:22.406Z,8.50
2018-06-30T23:57:50.752Z,8.50
